sensor_id;sensor_type;location;lat;lon;timestamp;temperature;humidity
20670;DHT22;10494;50.868;4.180;2022-07-11T00:02:10;16.70;99.90
20670;DHT22;10494;50.868;4.180;2022-07-11T00:04:39;16.70;99.90
20670;DHT22;10494;50.868;4.180;2022-07-11T00:07:05;16.70;99.90
20670;DHT22;10494;50.868;4.180;2022-07-11T00:09:31;16.70;99.90
20670;DHT22;10494;50.868;4.180;2022-07-11T00:11:57;16.70;99.90
20670;DHT22;10494;50.868;4.180;2022-07-11T00:14:23;16.60;99.90
20670;DHT22;10494;50.868;4.180;2022-07-11T00:16:49;16.60;99.90
20670;DHT22;10494;50.868;4.180;2022-07-11T00:19:15;16.60;99.90
20670;DHT22;10494;50.868;4.180;2022-07-11T00:21:41;16.60;99.90
20670;DHT22;10494;50.868;4.180;2022-07-11T00:24:07;16.50;99.90
20670;DHT22;10494;50.868;4.180;2022-07-11T00:26:36;16.50;99.90
20670;DHT22;10494;50.868;4.180;2022-07-11T00:29:02;16.40;99.90
20670;DHT22;10494;50.868;4.180;2022-07-11T00:31:28;16.30;99.90
20670;DHT22;10494;50.868;4.180;2022-07-11T00:33:54;16.30;99.90
20670;DHT22;10494;50.868;4.180;2022-07-11T00:36:20;16.30;99.90
20670;DHT22;10494;50.868;4.180;2022-07-11T00:38:46;16.30;99.90
20670;DHT22;10494;50.868;4.180;2022-07-11T00:41:11;16.30;99.90
20670;DHT22;10494;50.868;4.180;2022-07-11T00:43:39;16.20;99.90
20670;DHT22;10494;50.868;4.180;2022-07-11T00:46:06;16.20;99.90
20670;DHT22;10494;50.868;4.180;2022-07-11T00:48:32;16.20;99.90
20670;DHT22;10494;50.868;4.180;2022-07-11T00:50:59;16.20;99.90
20670;DHT22;10494;50.868;4.180;2022-07-11T00:53:27;16.20;99.90
20670;DHT22;10494;50.868;4.180;2022-07-11T00:55:53;16.20;99.90
20670;DHT22;10494;50.868;4.180;2022-07-11T00:58:19;16.20;99.90
20670;DHT22;10494;50.868;4.180;2022-07-11T01:00:45;16.10;99.90
20670;DHT22;10494;50.868;4.180;2022-07-11T01:03:11;16.20;99.90
20670;DHT22;10494;50.868;4.180;2022-07-11T01:05:37;16.10;99.90
20670;DHT22;10494;50.868;4.180;2022-07-11T01:08:03;16.10;99.90
20670;DHT22;10494;50.868;4.180;2022-07-11T01:10:29;16.10;99.90
20670;DHT22;10494;50.868;4.180;2022-07-11T01:12:54;16.00;99.90
20670;DHT22;10494;50.868;4.180;2022-07-11T01:15:20;16.00;99.90
20670;DHT22;10494;50.868;4.180;2022-07-11T01:17:46;16.00;99.90
20670;DHT22;10494;50.868;4.180;2022-07-11T01:20:12;16.00;99.90
20670;DHT22;10494;50.868;4.180;2022-07-11T01:22:43;16.00;99.90
20670;DHT22;10494;50.868;4.180;2022-07-11T01:25:09;16.00;99.90
20670;DHT22;10494;50.868;4.180;2022-07-11T01:27:38;16.00;99.90
20670;DHT22;10494;50.868;4.180;2022-07-11T01:30:05;15.90;99.90
20670;DHT22;10494;50.868;4.180;2022-07-11T01:32:30;15.90;99.90
20670;DHT22;10494;50.868;4.180;2022-07-11T01:34:56;15.80;99.90
20670;DHT22;10494;50.868;4.180;2022-07-11T01:37:21;15.80;99.90
20670;DHT22;10494;50.868;4.180;2022-07-11T01:39:47;15.70;99.90
20670;DHT22;10494;50.868;4.180;2022-07-11T01:42:13;15.70;99.90
20670;DHT22;10494;50.868;4.180;2022-07-11T01:44:38;15.60;99.90
20670;DHT22;10494;50.868;4.180;2022-07-11T01:47:04;15.50;99.90
20670;DHT22;10494;50.868;4.180;2022-07-11T01:49:29;15.50;99.90
20670;DHT22;10494;50.868;4.180;2022-07-11T01:51:56;15.40;99.90
20670;DHT22;10494;50.868;4.180;2022-07-11T01:54:21;15.40;99.90
20670;DHT22;10494;50.868;4.180;2022-07-11T01:56:47;15.40;99.90
20670;DHT22;10494;50.868;4.180;2022-07-11T01:59:13;15.30;99.90
20670;DHT22;10494;50.868;4.180;2022-07-11T02:01:38;15.30;99.90
20670;DHT22;10494;50.868;4.180;2022-07-11T02:04:04;15.30;99.90
20670;DHT22;10494;50.868;4.180;2022-07-11T02:06:31;15.30;99.90
20670;DHT22;10494;50.868;4.180;2022-07-11T02:08:57;15.30;99.90
20670;DHT22;10494;50.868;4.180;2022-07-11T02:11:23;15.20;99.90
20670;DHT22;10494;50.868;4.180;2022-07-11T02:13:49;15.20;99.90
20670;DHT22;10494;50.868;4.180;2022-07-11T02:16:16;15.20;99.90
20670;DHT22;10494;50.868;4.180;2022-07-11T02:18:42;15.10;99.90
20670;DHT22;10494;50.868;4.180;2022-07-11T02:21:07;15.10;99.90
20670;DHT22;10494;50.868;4.180;2022-07-11T02:23:34;15.10;99.90
20670;DHT22;10494;50.868;4.180;2022-07-11T02:26:00;15.10;99.90
20670;DHT22;10494;50.868;4.180;2022-07-11T02:28:25;15.10;99.90
20670;DHT22;10494;50.868;4.180;2022-07-11T02:30:51;15.10;99.90
20670;DHT22;10494;50.868;4.180;2022-07-11T02:33:16;15.10;99.90
20670;DHT22;10494;50.868;4.180;2022-07-11T02:35:43;15.00;99.90
20670;DHT22;10494;50.868;4.180;2022-07-11T02:38:09;15.00;99.90
20670;DHT22;10494;50.868;4.180;2022-07-11T02:40:35;15.00;99.90
20670;DHT22;10494;50.868;4.180;2022-07-11T02:43:02;14.90;99.90
20670;DHT22;10494;50.868;4.180;2022-07-11T02:45:27;14.90;99.90
20670;DHT22;10494;50.868;4.180;2022-07-11T02:47:53;14.90;99.90
20670;DHT22;10494;50.868;4.180;2022-07-11T02:50:18;14.90;99.90
20670;DHT22;10494;50.868;4.180;2022-07-11T02:52:44;14.90;99.90
20670;DHT22;10494;50.868;4.180;2022-07-11T02:55:11;14.80;99.90
20670;DHT22;10494;50.868;4.180;2022-07-11T02:57:38;14.80;99.90
20670;DHT22;10494;50.868;4.180;2022-07-11T03:00:05;14.70;99.90
20670;DHT22;10494;50.868;4.180;2022-07-11T03:02:31;14.70;99.90
20670;DHT22;10494;50.868;4.180;2022-07-11T03:04:57;14.70;99.90
20670;DHT22;10494;50.868;4.180;2022-07-11T03:07:25;14.70;99.90
20670;DHT22;10494;50.868;4.180;2022-07-11T03:09:52;14.70;99.90
20670;DHT22;10494;50.868;4.180;2022-07-11T03:12:18;14.70;99.90
20670;DHT22;10494;50.868;4.180;2022-07-11T03:14:43;14.60;99.90
20670;DHT22;10494;50.868;4.180;2022-07-11T03:17:09;14.60;99.90
20670;DHT22;10494;50.868;4.180;2022-07-11T03:19:34;14.60;99.90
20670;DHT22;10494;50.868;4.180;2022-07-11T03:22:00;14.60;99.90
20670;DHT22;10494;50.868;4.180;2022-07-11T03:24:26;14.60;99.90
20670;DHT22;10494;50.868;4.180;2022-07-11T03:26:51;14.60;99.90
20670;DHT22;10494;50.868;4.180;2022-07-11T03:29:17;14.50;99.90
20670;DHT22;10494;50.868;4.180;2022-07-11T03:31:43;14.50;99.90
20670;DHT22;10494;50.868;4.180;2022-07-11T03:34:09;14.60;99.90
20670;DHT22;10494;50.868;4.180;2022-07-11T03:36:34;14.60;99.90
20670;DHT22;10494;50.868;4.180;2022-07-11T03:39:00;14.50;99.90
20670;DHT22;10494;50.868;4.180;2022-07-11T03:41:25;14.40;99.90
20670;DHT22;10494;50.868;4.180;2022-07-11T03:43:51;14.50;99.90
20670;DHT22;10494;50.868;4.180;2022-07-11T03:46:17;14.40;99.90
20670;DHT22;10494;50.868;4.180;2022-07-11T03:48:42;14.30;99.90
20670;DHT22;10494;50.868;4.180;2022-07-11T03:51:08;14.40;99.90
20670;DHT22;10494;50.868;4.180;2022-07-11T03:53:34;14.30;99.90
20670;DHT22;10494;50.868;4.180;2022-07-11T03:56:00;14.40;99.90
20670;DHT22;10494;50.868;4.180;2022-07-11T03:58:25;14.40;99.90
20670;DHT22;10494;50.868;4.180;2022-07-11T04:00:51;14.40;99.90
20670;DHT22;10494;50.868;4.180;2022-07-11T04:03:20;14.40;99.90
20670;DHT22;10494;50.868;4.180;2022-07-11T04:05:46;14.40;99.90
20670;DHT22;10494;50.868;4.180;2022-07-11T04:08:11;14.40;99.90
20670;DHT22;10494;50.868;4.180;2022-07-11T04:10:37;14.40;99.90
20670;DHT22;10494;50.868;4.180;2022-07-11T04:13:02;14.50;99.90
20670;DHT22;10494;50.868;4.180;2022-07-11T04:15:28;14.50;99.90
20670;DHT22;10494;50.868;4.180;2022-07-11T04:17:53;14.50;99.90
20670;DHT22;10494;50.868;4.180;2022-07-11T04:20:19;14.50;99.90
20670;DHT22;10494;50.868;4.180;2022-07-11T04:22:45;14.60;99.90
20670;DHT22;10494;50.868;4.180;2022-07-11T04:25:10;14.60;99.90
20670;DHT22;10494;50.868;4.180;2022-07-11T04:27:36;14.60;99.90
20670;DHT22;10494;50.868;4.180;2022-07-11T04:30:01;14.60;99.90
20670;DHT22;10494;50.868;4.180;2022-07-11T04:32:27;14.70;99.90
20670;DHT22;10494;50.868;4.180;2022-07-11T04:34:52;14.80;99.90
20670;DHT22;10494;50.868;4.180;2022-07-11T04:37:19;14.80;99.90
20670;DHT22;10494;50.868;4.180;2022-07-11T04:39:44;14.90;99.90
20670;DHT22;10494;50.868;4.180;2022-07-11T04:42:13;14.90;99.90
20670;DHT22;10494;50.868;4.180;2022-07-11T04:44:39;14.90;99.90
20670;DHT22;10494;50.868;4.180;2022-07-11T04:47:05;14.90;99.90
20670;DHT22;10494;50.868;4.180;2022-07-11T04:49:31;15.00;99.90
20670;DHT22;10494;50.868;4.180;2022-07-11T04:51:57;15.00;99.90
20670;DHT22;10494;50.868;4.180;2022-07-11T04:54:23;15.10;99.90
20670;DHT22;10494;50.868;4.180;2022-07-11T04:56:49;15.10;99.90
20670;DHT22;10494;50.868;4.180;2022-07-11T04:59:14;15.20;99.90
20670;DHT22;10494;50.868;4.180;2022-07-11T05:01:40;15.30;99.90
20670;DHT22;10494;50.868;4.180;2022-07-11T05:04:06;15.30;99.90
20670;DHT22;10494;50.868;4.180;2022-07-11T05:06:33;15.30;99.90
20670;DHT22;10494;50.868;4.180;2022-07-11T05:08:59;15.30;99.90
20670;DHT22;10494;50.868;4.180;2022-07-11T05:11:24;15.40;99.90
20670;DHT22;10494;50.868;4.180;2022-07-11T05:13:50;15.50;99.90
20670;DHT22;10494;50.868;4.180;2022-07-11T05:16:16;15.60;99.90
20670;DHT22;10494;50.868;4.180;2022-07-11T05:18:41;15.80;99.90
20670;DHT22;10494;50.868;4.180;2022-07-11T05:21:07;15.90;99.90
20670;DHT22;10494;50.868;4.180;2022-07-11T05:23:33;16.00;99.90
20670;DHT22;10494;50.868;4.180;2022-07-11T05:25:58;16.20;99.90
20670;DHT22;10494;50.868;4.180;2022-07-11T05:28:24;16.20;99.90
20670;DHT22;10494;50.868;4.180;2022-07-11T05:30:49;16.40;99.90
20670;DHT22;10494;50.868;4.180;2022-07-11T05:33:15;16.50;99.90
20670;DHT22;10494;50.868;4.180;2022-07-11T05:35:41;16.60;99.90
20670;DHT22;10494;50.868;4.180;2022-07-11T05:38:07;16.70;99.90
20670;DHT22;10494;50.868;4.180;2022-07-11T05:40:32;16.80;99.90
20670;DHT22;10494;50.868;4.180;2022-07-11T05:42:58;16.40;99.90
20670;DHT22;10494;50.868;4.180;2022-07-11T05:45:23;16.20;99.90
20670;DHT22;10494;50.868;4.180;2022-07-11T05:47:49;16.20;99.90
20670;DHT22;10494;50.868;4.180;2022-07-11T05:50:14;16.10;99.90
20670;DHT22;10494;50.868;4.180;2022-07-11T05:52:40;16.10;99.90
20670;DHT22;10494;50.868;4.180;2022-07-11T05:55:06;16.20;99.90
20670;DHT22;10494;50.868;4.180;2022-07-11T05:57:32;16.40;99.90
20670;DHT22;10494;50.868;4.180;2022-07-11T05:59:57;16.50;99.90
20670;DHT22;10494;50.868;4.180;2022-07-11T06:02:23;16.50;99.90
20670;DHT22;10494;50.868;4.180;2022-07-11T06:04:49;16.60;99.90
20670;DHT22;10494;50.868;4.180;2022-07-11T06:07:14;16.70;99.90
20670;DHT22;10494;50.868;4.180;2022-07-11T06:09:58;16.80;99.90
20670;DHT22;10494;50.868;4.180;2022-07-11T06:12:24;17.10;99.90
20670;DHT22;10494;50.868;4.180;2022-07-11T06:14:49;17.50;99.90
20670;DHT22;10494;50.868;4.180;2022-07-11T06:17:15;17.90;99.90
20670;DHT22;10494;50.868;4.180;2022-07-11T06:19:41;18.40;99.90
20670;DHT22;10494;50.868;4.180;2022-07-11T06:22:06;18.80;99.90
20670;DHT22;10494;50.868;4.180;2022-07-11T06:24:32;19.10;99.90
20670;DHT22;10494;50.868;4.180;2022-07-11T06:26:57;18.90;99.90
20670;DHT22;10494;50.868;4.180;2022-07-11T06:29:26;18.70;99.90
20670;DHT22;10494;50.868;4.180;2022-07-11T06:31:51;18.90;99.90
20670;DHT22;10494;50.868;4.180;2022-07-11T06:34:18;19.20;99.90
20670;DHT22;10494;50.868;4.180;2022-07-11T06:36:43;19.40;99.90
20670;DHT22;10494;50.868;4.180;2022-07-11T06:39:09;19.40;99.90
20670;DHT22;10494;50.868;4.180;2022-07-11T06:41:35;19.50;99.90
20670;DHT22;10494;50.868;4.180;2022-07-11T06:44:00;19.70;99.90
20670;DHT22;10494;50.868;4.180;2022-07-11T06:46:26;19.10;99.90
20670;DHT22;10494;50.868;4.180;2022-07-11T06:48:53;18.50;99.90
20670;DHT22;10494;50.868;4.180;2022-07-11T06:51:18;18.30;99.90
20670;DHT22;10494;50.868;4.180;2022-07-11T06:53:44;18.10;99.90
20670;DHT22;10494;50.868;4.180;2022-07-11T06:56:10;18.00;99.90
20670;DHT22;10494;50.868;4.180;2022-07-11T06:58:36;18.10;99.90
20670;DHT22;10494;50.868;4.180;2022-07-11T07:01:03;18.10;99.90
20670;DHT22;10494;50.868;4.180;2022-07-11T07:03:31;18.50;99.90
20670;DHT22;10494;50.868;4.180;2022-07-11T07:05:57;19.10;99.90
20670;DHT22;10494;50.868;4.180;2022-07-11T07:08:26;19.40;99.90
20670;DHT22;10494;50.868;4.180;2022-07-11T07:10:52;19.10;99.90
20670;DHT22;10494;50.868;4.180;2022-07-11T07:13:19;19.60;99.90
20670;DHT22;10494;50.868;4.180;2022-07-11T07:15:46;20.70;99.90
20670;DHT22;10494;50.868;4.180;2022-07-11T07:18:11;21.40;99.90
20670;DHT22;10494;50.868;4.180;2022-07-11T07:20:38;21.60;99.90
20670;DHT22;10494;50.868;4.180;2022-07-11T07:23:03;21.90;99.90
20670;DHT22;10494;50.868;4.180;2022-07-11T07:25:29;22.20;99.90
20670;DHT22;10494;50.868;4.180;2022-07-11T07:27:54;22.30;99.90
20670;DHT22;10494;50.868;4.180;2022-07-11T07:30:20;24.10;99.90
20670;DHT22;10494;50.868;4.180;2022-07-11T07:32:46;25.70;99.90
20670;DHT22;10494;50.868;4.180;2022-07-11T07:35:12;27.10;99.90
20670;DHT22;10494;50.868;4.180;2022-07-11T07:37:37;26.80;99.90
20670;DHT22;10494;50.868;4.180;2022-07-11T07:40:03;24.50;99.90
20670;DHT22;10494;50.868;4.180;2022-07-11T07:42:29;24.20;99.90
20670;DHT22;10494;50.868;4.180;2022-07-11T07:44:55;26.20;99.90
20670;DHT22;10494;50.868;4.180;2022-07-11T07:47:20;27.30;99.90
20670;DHT22;10494;50.868;4.180;2022-07-11T07:49:46;26.10;99.90
20670;DHT22;10494;50.868;4.180;2022-07-11T07:52:11;27.80;99.90
20670;DHT22;10494;50.868;4.180;2022-07-11T07:54:37;29.20;99.90
20670;DHT22;10494;50.868;4.180;2022-07-11T07:57:03;30.30;99.90
20670;DHT22;10494;50.868;4.180;2022-07-11T07:59:29;31.60;99.90
20670;DHT22;10494;50.868;4.180;2022-07-11T08:01:55;30.40;99.90
20670;DHT22;10494;50.868;4.180;2022-07-11T08:04:20;27.20;99.90
20670;DHT22;10494;50.868;4.180;2022-07-11T08:06:46;26.60;99.90
20670;DHT22;10494;50.868;4.180;2022-07-11T08:09:12;26.30;99.90
20670;DHT22;10494;50.868;4.180;2022-07-11T08:11:38;26.10;99.90
20670;DHT22;10494;50.868;4.180;2022-07-11T08:14:04;26.00;99.90
20670;DHT22;10494;50.868;4.180;2022-07-11T08:16:31;27.50;99.90
20670;DHT22;10494;50.868;4.180;2022-07-11T08:19:02;28.40;99.90
20670;DHT22;10494;50.868;4.180;2022-07-11T08:21:29;28.50;99.90
20670;DHT22;10494;50.868;4.180;2022-07-11T08:23:56;28.60;99.90
20670;DHT22;10494;50.868;4.180;2022-07-11T08:26:22;29.20;99.90
20670;DHT22;10494;50.868;4.180;2022-07-11T08:28:48;29.20;99.90
20670;DHT22;10494;50.868;4.180;2022-07-11T08:31:13;26.70;99.90
20670;DHT22;10494;50.868;4.180;2022-07-11T08:33:39;25.30;99.90
20670;DHT22;10494;50.868;4.180;2022-07-11T08:36:05;26.70;99.90
20670;DHT22;10494;50.868;4.180;2022-07-11T08:38:31;28.60;99.90
20670;DHT22;10494;50.868;4.180;2022-07-11T08:40:57;30.30;99.90
20670;DHT22;10494;50.868;4.180;2022-07-11T08:43:27;31.00;99.90
20670;DHT22;10494;50.868;4.180;2022-07-11T08:45:54;29.40;99.90
20670;DHT22;10494;50.868;4.180;2022-07-11T08:48:21;30.10;99.90
20670;DHT22;10494;50.868;4.180;2022-07-11T08:50:49;27.60;99.90
20670;DHT22;10494;50.868;4.180;2022-07-11T08:53:15;26.50;99.90
20670;DHT22;10494;50.868;4.180;2022-07-11T08:55:41;28.50;99.90
20670;DHT22;10494;50.868;4.180;2022-07-11T08:58:07;30.30;99.90
20670;DHT22;10494;50.868;4.180;2022-07-11T09:00:33;28.80;99.90
20670;DHT22;10494;50.868;4.180;2022-07-11T09:03:00;26.80;99.90
20670;DHT22;10494;50.868;4.180;2022-07-11T09:05:27;26.10;99.90
20670;DHT22;10494;50.868;4.180;2022-07-11T09:07:53;27.30;99.90
20670;DHT22;10494;50.868;4.180;2022-07-11T09:10:19;27.30;99.90
20670;DHT22;10494;50.868;4.180;2022-07-11T09:13:02;27.80;99.90
20670;DHT22;10494;50.868;4.180;2022-07-11T09:15:36;25.30;99.90
20670;DHT22;10494;50.868;4.180;2022-07-11T09:18:03;25.00;99.90
20670;DHT22;10494;50.868;4.180;2022-07-11T09:20:52;25.00;99.90
20670;DHT22;10494;50.868;4.180;2022-07-11T09:23:37;26.00;99.90
20670;DHT22;10494;50.868;4.180;2022-07-11T09:26:21;27.80;99.90
20670;DHT22;10494;50.868;4.180;2022-07-11T09:29:20;28.10;99.90
20670;DHT22;10494;50.868;4.180;2022-07-11T09:31:47;28.50;99.90
20670;DHT22;10494;50.868;4.180;2022-07-11T09:34:15;29.50;99.90
20670;DHT22;10494;50.868;4.180;2022-07-11T09:36:46;30.60;99.90
20670;DHT22;10494;50.868;4.180;2022-07-11T09:39:19;26.50;99.90
20670;DHT22;10494;50.868;4.180;2022-07-11T09:41:46;26.80;99.90
20670;DHT22;10494;50.868;4.180;2022-07-11T09:46:47;28.00;99.90
20670;DHT22;10494;50.868;4.180;2022-07-11T09:49:14;28.10;99.90
20670;DHT22;10494;50.868;4.180;2022-07-11T09:51:40;27.40;99.90
20670;DHT22;10494;50.868;4.180;2022-07-11T09:54:07;27.90;99.90
20670;DHT22;10494;50.868;4.180;2022-07-11T09:56:44;28.30;99.90
20670;DHT22;10494;50.868;4.180;2022-07-11T09:59:11;28.90;99.90
20670;DHT22;10494;50.868;4.180;2022-07-11T10:01:38;28.40;99.90
20670;DHT22;10494;50.868;4.180;2022-07-11T10:04:06;28.50;99.90
20670;DHT22;10494;50.868;4.180;2022-07-11T10:06:33;27.40;99.90
20670;DHT22;10494;50.868;4.180;2022-07-11T10:08:59;28.40;99.90
20670;DHT22;10494;50.868;4.180;2022-07-11T10:11:24;29.40;99.90
20670;DHT22;10494;50.868;4.180;2022-07-11T10:13:51;29.70;99.90
20670;DHT22;10494;50.868;4.180;2022-07-11T10:19:02;27.00;99.90
20670;DHT22;10494;50.868;4.180;2022-07-11T10:21:42;27.10;99.90
20670;DHT22;10494;50.868;4.180;2022-07-11T10:30:13;24.70;99.90
20670;DHT22;10494;50.868;4.180;2022-07-11T10:32:58;25.40;99.90
20670;DHT22;10494;50.868;4.180;2022-07-11T10:35:24;25.70;99.90
20670;DHT22;10494;50.868;4.180;2022-07-11T10:37:53;25.90;99.90
20670;DHT22;10494;50.868;4.180;2022-07-11T10:40:45;26.40;99.90
20670;DHT22;10494;50.868;4.180;2022-07-11T10:43:35;26.90;99.90
20670;DHT22;10494;50.868;4.180;2022-07-11T10:46:12;26.80;99.90
20670;DHT22;10494;50.868;4.180;2022-07-11T10:59:33;27.40;99.90
20670;DHT22;10494;50.868;4.180;2022-07-11T11:02:12;27.40;99.90
20670;DHT22;10494;50.868;4.180;2022-07-11T11:04:55;27.80;99.90
20670;DHT22;10494;50.868;4.180;2022-07-11T11:07:37;26.30;99.90
20670;DHT22;10494;50.868;4.180;2022-07-11T11:23:36;27.50;99.90
20670;DHT22;10494;50.868;4.180;2022-07-11T11:26:14;28.40;99.90
20670;DHT22;10494;50.868;4.180;2022-07-11T11:31:25;26.70;99.90
20670;DHT22;10494;50.868;4.180;2022-07-11T11:33:51;26.00;99.90
20670;DHT22;10494;50.868;4.180;2022-07-11T11:36:19;25.30;99.90
20670;DHT22;10494;50.868;4.180;2022-07-11T11:38:45;25.20;99.90
20670;DHT22;10494;50.868;4.180;2022-07-11T11:41:35;25.20;99.90
20670;DHT22;10494;50.868;4.180;2022-07-11T11:44:01;25.60;99.90
20670;DHT22;10494;50.868;4.180;2022-07-11T11:46:29;26.10;99.90
20670;DHT22;10494;50.868;4.180;2022-07-11T11:48:59;26.50;99.90
20670;DHT22;10494;50.868;4.180;2022-07-11T11:51:29;26.00;99.90
20670;DHT22;10494;50.868;4.180;2022-07-11T11:54:00;26.30;99.90
20670;DHT22;10494;50.868;4.180;2022-07-11T11:56:31;26.60;99.90
20670;DHT22;10494;50.868;4.180;2022-07-11T11:59:06;26.80;99.90
20670;DHT22;10494;50.868;4.180;2022-07-11T12:01:35;27.00;99.90
20670;DHT22;10494;50.868;4.180;2022-07-11T12:04:02;27.30;99.90
20670;DHT22;10494;50.868;4.180;2022-07-11T12:06:33;27.20;99.90
20670;DHT22;10494;50.868;4.180;2022-07-11T12:11:28;25.50;99.90
20670;DHT22;10494;50.868;4.180;2022-07-11T12:14:05;25.20;99.90
20670;DHT22;10494;50.868;4.180;2022-07-11T12:16:50;25.40;99.90
20670;DHT22;10494;50.868;4.180;2022-07-11T12:19:23;25.40;99.90
20670;DHT22;10494;50.868;4.180;2022-07-11T12:21:53;24.70;99.90
20670;DHT22;10494;50.868;4.180;2022-07-11T12:24:23;24.50;99.90
20670;DHT22;10494;50.868;4.180;2022-07-11T12:26:50;25.10;99.90
20670;DHT22;10494;50.868;4.180;2022-07-11T12:29:16;25.50;99.90
20670;DHT22;10494;50.868;4.180;2022-07-11T12:31:52;25.40;99.90
20670;DHT22;10494;50.868;4.180;2022-07-11T12:37:17;26.00;99.90
20670;DHT22;10494;50.868;4.180;2022-07-11T12:39:54;25.80;99.90
20670;DHT22;10494;50.868;4.180;2022-07-11T12:42:30;25.10;99.90
20670;DHT22;10494;50.868;4.180;2022-07-11T12:45:06;25.10;99.90
20670;DHT22;10494;50.868;4.180;2022-07-11T12:47:44;25.80;99.90
20670;DHT22;10494;50.868;4.180;2022-07-11T12:52:49;26.60;99.90
20670;DHT22;10494;50.868;4.180;2022-07-11T12:55:25;26.90;99.90
20670;DHT22;10494;50.868;4.180;2022-07-11T13:00:34;27.00;99.90
20670;DHT22;10494;50.868;4.180;2022-07-11T13:03:02;26.50;99.90
20670;DHT22;10494;50.868;4.180;2022-07-11T13:05:28;26.70;99.90
20670;DHT22;10494;50.868;4.180;2022-07-11T13:07:54;27.00;99.90
20670;DHT22;10494;50.868;4.180;2022-07-11T13:10:38;27.20;99.90
20670;DHT22;10494;50.868;4.180;2022-07-11T13:13:16;27.30;99.90
20670;DHT22;10494;50.868;4.180;2022-07-11T13:15:43;27.70;99.90
20670;DHT22;10494;50.868;4.180;2022-07-11T13:18:09;26.80;99.90
20670;DHT22;10494;50.868;4.180;2022-07-11T13:20:35;25.90;99.90
20670;DHT22;10494;50.868;4.180;2022-07-11T13:23:01;26.20;99.90
20670;DHT22;10494;50.868;4.180;2022-07-11T13:25:27;26.30;99.90
20670;DHT22;10494;50.868;4.180;2022-07-11T13:27:53;26.10;99.90
20670;DHT22;10494;50.868;4.180;2022-07-11T13:30:20;25.70;99.90
20670;DHT22;10494;50.868;4.180;2022-07-11T13:32:49;25.60;99.90
20670;DHT22;10494;50.868;4.180;2022-07-11T13:35:17;25.80;99.90
20670;DHT22;10494;50.868;4.180;2022-07-11T13:37:44;25.80;99.90
20670;DHT22;10494;50.868;4.180;2022-07-11T13:40:13;26.40;99.90
20670;DHT22;10494;50.868;4.180;2022-07-11T13:42:40;26.50;99.90
20670;DHT22;10494;50.868;4.180;2022-07-11T13:45:07;26.70;99.90
20670;DHT22;10494;50.868;4.180;2022-07-11T13:47:34;26.80;99.90
20670;DHT22;10494;50.868;4.180;2022-07-11T13:50:01;27.20;99.90
20670;DHT22;10494;50.868;4.180;2022-07-11T13:52:27;26.60;99.90
20670;DHT22;10494;50.868;4.180;2022-07-11T13:54:53;25.70;99.90
20670;DHT22;10494;50.868;4.180;2022-07-11T13:57:18;25.50;99.90
20670;DHT22;10494;50.868;4.180;2022-07-11T13:59:46;26.10;99.90
20670;DHT22;10494;50.868;4.180;2022-07-11T14:02:12;26.70;99.90
20670;DHT22;10494;50.868;4.180;2022-07-11T14:04:37;27.10;99.90
20670;DHT22;10494;50.868;4.180;2022-07-11T14:07:03;27.20;99.90
20670;DHT22;10494;50.868;4.180;2022-07-11T14:09:29;26.80;99.90
20670;DHT22;10494;50.868;4.180;2022-07-11T14:11:55;26.10;99.90
20670;DHT22;10494;50.868;4.180;2022-07-11T14:14:21;25.70;99.90
20670;DHT22;10494;50.868;4.180;2022-07-11T14:16:47;25.90;99.90
20670;DHT22;10494;50.868;4.180;2022-07-11T14:19:12;26.40;99.90
20670;DHT22;10494;50.868;4.180;2022-07-11T14:21:39;26.60;99.90
20670;DHT22;10494;50.868;4.180;2022-07-11T14:24:06;26.80;99.90
20670;DHT22;10494;50.868;4.180;2022-07-11T14:26:35;27.40;99.90
20670;DHT22;10494;50.868;4.180;2022-07-11T14:29:02;27.90;99.90
20670;DHT22;10494;50.868;4.180;2022-07-11T14:31:28;28.10;99.90
20670;DHT22;10494;50.868;4.180;2022-07-11T14:33:55;28.50;99.90
20670;DHT22;10494;50.868;4.180;2022-07-11T14:36:23;28.60;99.90
20670;DHT22;10494;50.868;4.180;2022-07-11T14:38:50;28.70;99.90
20670;DHT22;10494;50.868;4.180;2022-07-11T14:41:16;28.40;99.90
20670;DHT22;10494;50.868;4.180;2022-07-11T14:43:42;27.90;99.90
20670;DHT22;10494;50.868;4.180;2022-07-11T14:46:08;27.50;99.90
20670;DHT22;10494;50.868;4.180;2022-07-11T14:48:33;27.60;99.90
20670;DHT22;10494;50.868;4.180;2022-07-11T14:51:00;27.20;99.90
20670;DHT22;10494;50.868;4.180;2022-07-11T14:53:26;27.30;99.90
20670;DHT22;10494;50.868;4.180;2022-07-11T14:55:52;27.50;99.90
20670;DHT22;10494;50.868;4.180;2022-07-11T14:58:18;28.10;99.90
20670;DHT22;10494;50.868;4.180;2022-07-11T15:00:44;28.20;99.90
20670;DHT22;10494;50.868;4.180;2022-07-11T15:03:10;28.00;99.90
20670;DHT22;10494;50.868;4.180;2022-07-11T15:05:55;27.90;99.90
20670;DHT22;10494;50.868;4.180;2022-07-11T15:08:20;27.50;99.90
20670;DHT22;10494;50.868;4.180;2022-07-11T15:11:22;27.80;99.90
20670;DHT22;10494;50.868;4.180;2022-07-11T15:14:07;28.20;99.90
20670;DHT22;10494;50.868;4.180;2022-07-11T15:16:33;28.50;99.90
20670;DHT22;10494;50.868;4.180;2022-07-11T15:19:04;28.50;99.90
20670;DHT22;10494;50.868;4.180;2022-07-11T15:21:30;27.80;99.90
20670;DHT22;10494;50.868;4.180;2022-07-11T15:23:57;27.70;99.90
20670;DHT22;10494;50.868;4.180;2022-07-11T15:26:23;27.40;99.90
20670;DHT22;10494;50.868;4.180;2022-07-11T15:28:52;27.50;99.90
20670;DHT22;10494;50.868;4.180;2022-07-11T15:31:18;27.80;99.90
20670;DHT22;10494;50.868;4.180;2022-07-11T15:33:44;27.80;99.90
20670;DHT22;10494;50.868;4.180;2022-07-11T15:36:15;27.50;99.90
20670;DHT22;10494;50.868;4.180;2022-07-11T15:38:41;27.00;99.90
20670;DHT22;10494;50.868;4.180;2022-07-11T15:41:10;26.60;99.90
20670;DHT22;10494;50.868;4.180;2022-07-11T15:43:35;26.30;99.90
20670;DHT22;10494;50.868;4.180;2022-07-11T15:46:02;26.10;99.90
20670;DHT22;10494;50.868;4.180;2022-07-11T15:48:28;26.00;99.90
20670;DHT22;10494;50.868;4.180;2022-07-11T15:50:54;26.10;99.90
20670;DHT22;10494;50.868;4.180;2022-07-11T15:53:19;26.20;99.90
20670;DHT22;10494;50.868;4.180;2022-07-11T15:55:45;26.30;99.90
20670;DHT22;10494;50.868;4.180;2022-07-11T15:58:12;26.70;99.90
20670;DHT22;10494;50.868;4.180;2022-07-11T16:00:38;27.10;99.90
20670;DHT22;10494;50.868;4.180;2022-07-11T16:03:05;27.20;99.90
20670;DHT22;10494;50.868;4.180;2022-07-11T16:05:30;27.10;99.90
20670;DHT22;10494;50.868;4.180;2022-07-11T16:07:56;26.80;99.90
20670;DHT22;10494;50.868;4.180;2022-07-11T16:10:22;26.60;99.90
20670;DHT22;10494;50.868;4.180;2022-07-11T16:12:47;26.60;99.90
20670;DHT22;10494;50.868;4.180;2022-07-11T16:15:13;26.40;99.90
20670;DHT22;10494;50.868;4.180;2022-07-11T16:17:39;26.40;99.90
20670;DHT22;10494;50.868;4.180;2022-07-11T16:20:06;26.20;99.90
20670;DHT22;10494;50.868;4.180;2022-07-11T16:22:31;26.20;99.90